NCAR-RAP Real-Time Weather Data

Output produced by METARs form (08 May 2021  00:31 UTC)
found at http://weather.rap.ucar.edu/surface/
 
KOLS 072354Z AUTO 22011G19KT 10SM CLR 31/M09 A2996 RMK AO2 SLP084 T03111094 10328 20300 56017
KOLS 072254Z AUTO 22008G20KT 10SM CLR 32/M09 A2997 RMK AO2 SLP084 T03171089
KOLS 072154Z AUTO 21016G22KT 10SM CLR 32/M11 A2999 RMK AO2 SLP090 T03221111
KOLS 072055Z AUTO 25010G18KT 210V280 10SM CLR 31/M12 A3001 RMK AO2 SLP099 T03111117 56016
KOLS 071954Z AUTO 25009G17KT 10SM CLR 32/M07 A3003 RMK AO2 SLP099 T03221072
KOLS 071854Z AUTO 23009G18KT 10SM CLR 31/M08 A3005 RMK AO2 SLP108 T03111083
KOLS 071754Z AUTO 19010KT 10SM CLR 31/M07 A3007 RMK AO2 SLP112 T03061067 10306 20106 58007
KOLS 071654Z AUTO 17009KT 10SM CLR 29/M04 A3008 RMK AO2 SLP112 T02891039
KOLS 071554Z AUTO VRB03KT 10SM CLR 25/M02 A3008 RMK AO2 SLP119 T02501017
KOLS 071454Z AUTO 13004KT 10SM CLR 21/M02 A3009 RMK AO2 SLP123 T02061022 53004
KOLS 071354Z AUTO 00000KT 10SM CLR 15/M02 A3009 RMK AO2 SLP127 T01501022
KOLS 071254Z AUTO 00000KT 10SM CLR 13/M03 A3007 RMK AO2 SLP122 T01281028
KOLS 071154Z AUTO 20003KT 10SM CLR 12/M03 A3008 RMK AO2 SLP122 T01221028 10194 20122 55001
KOLS 071054Z AUTO 16003KT 10SM CLR 12/M03 A3007 RMK AO2 SLP122 T01221028